sensor_id;sensor_type;location;lat;lon;timestamp;temperature;humidity
3919;DHT22;1974;48.670;8.994;2022-11-02T00:01:47;9.90;99.90
3919;DHT22;1974;48.670;8.994;2022-11-02T00:04:14;9.90;99.90
3919;DHT22;1974;48.670;8.994;2022-11-02T00:06:40;9.90;99.90
3919;DHT22;1974;48.670;8.994;2022-11-02T00:09:10;9.90;99.90
3919;DHT22;1974;48.670;8.994;2022-11-02T00:11:37;9.90;99.90
3919;DHT22;1974;48.670;8.994;2022-11-02T00:14:04;9.90;99.90
3919;DHT22;1974;48.670;8.994;2022-11-02T00:16:31;9.90;99.90
3919;DHT22;1974;48.670;8.994;2022-11-02T00:18:59;9.90;99.90
3919;DHT22;1974;48.670;8.994;2022-11-02T00:21:26;9.90;99.90
3919;DHT22;1974;48.670;8.994;2022-11-02T00:23:54;9.90;99.90
3919;DHT22;1974;48.670;8.994;2022-11-02T00:26:23;9.90;99.90
3919;DHT22;1974;48.670;8.994;2022-11-02T00:28:50;9.80;99.90
3919;DHT22;1974;48.670;8.994;2022-11-02T00:31:17;9.80;99.90
3919;DHT22;1974;48.670;8.994;2022-11-02T00:33:44;9.80;99.90
3919;DHT22;1974;48.670;8.994;2022-11-02T00:36:11;9.80;99.90
3919;DHT22;1974;48.670;8.994;2022-11-02T00:38:38;9.80;99.90
3919;DHT22;1974;48.670;8.994;2022-11-02T00:41:05;9.80;99.90
3919;DHT22;1974;48.670;8.994;2022-11-02T00:43:34;9.80;99.90
3919;DHT22;1974;48.670;8.994;2022-11-02T00:46:00;9.90;99.90
3919;DHT22;1974;48.670;8.994;2022-11-02T00:48:27;9.90;99.90
3919;DHT22;1974;48.670;8.994;2022-11-02T00:50:54;9.90;99.90
3919;DHT22;1974;48.670;8.994;2022-11-02T00:53:21;9.90;99.90
3919;DHT22;1974;48.670;8.994;2022-11-02T00:55:48;9.90;99.90
3919;DHT22;1974;48.670;8.994;2022-11-02T00:58:14;9.90;99.90
3919;DHT22;1974;48.670;8.994;2022-11-02T01:00:42;9.90;99.90
3919;DHT22;1974;48.670;8.994;2022-11-02T01:03:09;10.00;99.90
3919;DHT22;1974;48.670;8.994;2022-11-02T01:05:36;10.00;99.90
3919;DHT22;1974;48.670;8.994;2022-11-02T01:08:03;9.90;99.90
3919;DHT22;1974;48.670;8.994;2022-11-02T01:10:30;10.00;99.90
3919;DHT22;1974;48.670;8.994;2022-11-02T01:12:57;9.90;99.90
3919;DHT22;1974;48.670;8.994;2022-11-02T01:15:24;10.00;99.90
3919;DHT22;1974;48.670;8.994;2022-11-02T01:17:52;9.90;99.90
3919;DHT22;1974;48.670;8.994;2022-11-02T01:20:19;9.90;99.90
3919;DHT22;1974;48.670;8.994;2022-11-02T01:22:46;9.90;99.90
3919;DHT22;1974;48.670;8.994;2022-11-02T01:25:12;9.90;99.90
3919;DHT22;1974;48.670;8.994;2022-11-02T01:27:39;9.90;99.90
3919;DHT22;1974;48.670;8.994;2022-11-02T01:30:07;10.00;99.90
3919;DHT22;1974;48.670;8.994;2022-11-02T01:32:33;10.00;99.90
3919;DHT22;1974;48.670;8.994;2022-11-02T01:35:02;10.00;99.90
3919;DHT22;1974;48.670;8.994;2022-11-02T01:37:28;10.00;99.90
3919;DHT22;1974;48.670;8.994;2022-11-02T01:39:55;9.90;99.90
3919;DHT22;1974;48.670;8.994;2022-11-02T01:42:23;9.90;99.90
3919;DHT22;1974;48.670;8.994;2022-11-02T01:44:52;9.90;99.90
3919;DHT22;1974;48.670;8.994;2022-11-02T01:47:22;9.90;99.90
3919;DHT22;1974;48.670;8.994;2022-11-02T01:49:53;9.90;99.90
3919;DHT22;1974;48.670;8.994;2022-11-02T01:52:26;9.90;99.90
3919;DHT22;1974;48.670;8.994;2022-11-02T01:54:58;10.00;99.90
3919;DHT22;1974;48.670;8.994;2022-11-02T01:57:26;10.00;99.90
3919;DHT22;1974;48.670;8.994;2022-11-02T01:59:56;10.00;99.90
3919;DHT22;1974;48.670;8.994;2022-11-02T02:02:26;9.90;99.90
3919;DHT22;1974;48.670;8.994;2022-11-02T02:04:58;10.00;99.90
3919;DHT22;1974;48.670;8.994;2022-11-02T02:07:29;10.00;99.90
3919;DHT22;1974;48.670;8.994;2022-11-02T02:09:56;10.00;99.90
3919;DHT22;1974;48.670;8.994;2022-11-02T02:12:24;10.00;99.90
3919;DHT22;1974;48.670;8.994;2022-11-02T02:14:52;9.90;99.90
3919;DHT22;1974;48.670;8.994;2022-11-02T02:17:27;9.90;99.90
3919;DHT22;1974;48.670;8.994;2022-11-02T02:20:00;9.90;99.90
3919;DHT22;1974;48.670;8.994;2022-11-02T02:25:59;9.90;99.90
3919;DHT22;1974;48.670;8.994;2022-11-02T02:28:35;9.90;99.90
3919;DHT22;1974;48.670;8.994;2022-11-02T02:31:09;9.90;99.90
3919;DHT22;1974;48.670;8.994;2022-11-02T02:33:42;9.90;99.90
3919;DHT22;1974;48.670;8.994;2022-11-02T02:36:16;10.00;99.90
3919;DHT22;1974;48.670;8.994;2022-11-02T02:38:46;9.90;99.90
3919;DHT22;1974;48.670;8.994;2022-11-02T02:41:19;10.00;99.90
3919;DHT22;1974;48.670;8.994;2022-11-02T02:43:52;10.00;99.90
3919;DHT22;1974;48.670;8.994;2022-11-02T02:46:23;10.00;99.90
3919;DHT22;1974;48.670;8.994;2022-11-02T02:48:55;10.00;99.90
3919;DHT22;1974;48.670;8.994;2022-11-02T02:51:26;9.90;99.90
3919;DHT22;1974;48.670;8.994;2022-11-02T02:53:57;10.00;99.90
3919;DHT22;1974;48.670;8.994;2022-11-02T02:56:28;9.90;99.90
3919;DHT22;1974;48.670;8.994;2022-11-02T02:58:59;9.90;99.90
3919;DHT22;1974;48.670;8.994;2022-11-02T03:01:27;9.90;99.90
3919;DHT22;1974;48.670;8.994;2022-11-02T03:03:54;10.00;99.90
3919;DHT22;1974;48.670;8.994;2022-11-02T03:06:24;10.00;99.90
3919;DHT22;1974;48.670;8.994;2022-11-02T03:09:02;10.00;99.90
3919;DHT22;1974;48.670;8.994;2022-11-02T03:11:31;10.00;99.90
3919;DHT22;1974;48.670;8.994;2022-11-02T03:14:11;10.00;99.90
3919;DHT22;1974;48.670;8.994;2022-11-02T03:16:47;10.00;99.90
3919;DHT22;1974;48.670;8.994;2022-11-02T03:19:22;10.00;99.90
3919;DHT22;1974;48.670;8.994;2022-11-02T03:21:54;10.10;99.90
3919;DHT22;1974;48.670;8.994;2022-11-02T03:24:28;10.10;99.90
3919;DHT22;1974;48.670;8.994;2022-11-02T03:27:05;10.10;99.90
3919;DHT22;1974;48.670;8.994;2022-11-02T03:29:38;10.10;99.90
3919;DHT22;1974;48.670;8.994;2022-11-02T03:32:10;10.10;99.90
3919;DHT22;1974;48.670;8.994;2022-11-02T03:34:42;10.10;99.90
3919;DHT22;1974;48.670;8.994;2022-11-02T03:37:12;10.10;99.90
3919;DHT22;1974;48.670;8.994;2022-11-02T03:39:45;10.10;99.90
3919;DHT22;1974;48.670;8.994;2022-11-02T03:42:15;10.10;99.90
3919;DHT22;1974;48.670;8.994;2022-11-02T03:44:44;10.10;99.90
3919;DHT22;1974;48.670;8.994;2022-11-02T03:47:15;10.10;99.90
3919;DHT22;1974;48.670;8.994;2022-11-02T03:49:43;10.10;99.90
3919;DHT22;1974;48.670;8.994;2022-11-02T03:52:15;10.10;99.90
3919;DHT22;1974;48.670;8.994;2022-11-02T03:54:46;10.00;99.90
3919;DHT22;1974;48.670;8.994;2022-11-02T03:57:18;10.00;99.90
3919;DHT22;1974;48.670;8.994;2022-11-02T03:59:48;10.00;99.90
3919;DHT22;1974;48.670;8.994;2022-11-02T04:02:15;10.00;99.90
3919;DHT22;1974;48.670;8.994;2022-11-02T04:04:48;10.00;99.90
3919;DHT22;1974;48.670;8.994;2022-11-02T04:07:19;10.00;99.90
3919;DHT22;1974;48.670;8.994;2022-11-02T04:09:47;10.10;99.90
3919;DHT22;1974;48.670;8.994;2022-11-02T04:12:14;10.10;99.90
3919;DHT22;1974;48.670;8.994;2022-11-02T04:14:59;10.10;99.90
3919;DHT22;1974;48.670;8.994;2022-11-02T04:17:26;10.20;99.90
3919;DHT22;1974;48.670;8.994;2022-11-02T04:20:10;10.10;99.90
3919;DHT22;1974;48.670;8.994;2022-11-02T04:22:37;10.10;99.90
3919;DHT22;1974;48.670;8.994;2022-11-02T04:25:33;10.00;99.90
3919;DHT22;1974;48.670;8.994;2022-11-02T04:28:06;10.00;99.90
3919;DHT22;1974;48.670;8.994;2022-11-02T04:30:34;10.00;99.90
3919;DHT22;1974;48.670;8.994;2022-11-02T04:33:01;10.00;99.90
3919;DHT22;1974;48.670;8.994;2022-11-02T04:35:45;10.00;99.90
3919;DHT22;1974;48.670;8.994;2022-11-02T04:38:12;10.00;99.90
3919;DHT22;1974;48.670;8.994;2022-11-02T04:40:58;9.90;99.90
3919;DHT22;1974;48.670;8.994;2022-11-02T04:43:39;9.90;99.90
3919;DHT22;1974;48.670;8.994;2022-11-02T04:46:07;9.90;99.90
3919;DHT22;1974;48.670;8.994;2022-11-02T04:48:33;9.80;99.90
3919;DHT22;1974;48.670;8.994;2022-11-02T04:51:00;9.80;99.90
3919;DHT22;1974;48.670;8.994;2022-11-02T04:53:27;9.80;99.90
3919;DHT22;1974;48.670;8.994;2022-11-02T04:55:54;9.70;99.90
3919;DHT22;1974;48.670;8.994;2022-11-02T04:58:20;9.70;99.90
3919;DHT22;1974;48.670;8.994;2022-11-02T05:00:47;9.70;99.90
3919;DHT22;1974;48.670;8.994;2022-11-02T05:03:15;9.70;99.90
3919;DHT22;1974;48.670;8.994;2022-11-02T05:05:42;9.70;99.90
3919;DHT22;1974;48.670;8.994;2022-11-02T05:08:09;9.70;99.90
3919;DHT22;1974;48.670;8.994;2022-11-02T05:10:36;9.70;99.90
3919;DHT22;1974;48.670;8.994;2022-11-02T05:13:02;9.70;99.90
3919;DHT22;1974;48.670;8.994;2022-11-02T05:15:29;9.60;99.90
3919;DHT22;1974;48.670;8.994;2022-11-02T05:17:56;9.60;99.90
3919;DHT22;1974;48.670;8.994;2022-11-02T05:20:25;9.60;99.90
3919;DHT22;1974;48.670;8.994;2022-11-02T05:22:52;9.60;99.90
3919;DHT22;1974;48.670;8.994;2022-11-02T05:25:18;9.60;99.90
3919;DHT22;1974;48.670;8.994;2022-11-02T05:27:45;9.70;99.90
3919;DHT22;1974;48.670;8.994;2022-11-02T05:30:12;9.70;99.90
3919;DHT22;1974;48.670;8.994;2022-11-02T05:32:39;9.60;99.90
3919;DHT22;1974;48.670;8.994;2022-11-02T05:35:06;9.60;99.90
3919;DHT22;1974;48.670;8.994;2022-11-02T05:37:34;9.60;99.90
3919;DHT22;1974;48.670;8.994;2022-11-02T05:40:00;9.60;99.90
3919;DHT22;1974;48.670;8.994;2022-11-02T05:42:27;9.60;99.90
3919;DHT22;1974;48.670;8.994;2022-11-02T05:44:53;9.70;99.90
3919;DHT22;1974;48.670;8.994;2022-11-02T05:47:20;9.70;99.90
3919;DHT22;1974;48.670;8.994;2022-11-02T05:49:47;9.70;99.90
3919;DHT22;1974;48.670;8.994;2022-11-02T05:52:13;9.80;99.90
3919;DHT22;1974;48.670;8.994;2022-11-02T05:54:41;9.80;99.90
3919;DHT22;1974;48.670;8.994;2022-11-02T05:57:08;9.80;99.90
3919;DHT22;1974;48.670;8.994;2022-11-02T05:59:35;9.80;99.90
3919;DHT22;1974;48.670;8.994;2022-11-02T06:02:02;9.80;99.90
3919;DHT22;1974;48.670;8.994;2022-11-02T06:04:28;9.80;99.90
3919;DHT22;1974;48.670;8.994;2022-11-02T06:06:55;9.80;99.90
3919;DHT22;1974;48.670;8.994;2022-11-02T06:09:22;9.80;99.90
3919;DHT22;1974;48.670;8.994;2022-11-02T06:11:50;9.90;99.90
3919;DHT22;1974;48.670;8.994;2022-11-02T06:14:17;9.90;99.90
3919;DHT22;1974;48.670;8.994;2022-11-02T06:16:44;9.90;99.90
3919;DHT22;1974;48.670;8.994;2022-11-02T06:19:10;9.90;99.90
3919;DHT22;1974;48.670;8.994;2022-11-02T06:21:37;9.80;99.90
3919;DHT22;1974;48.670;8.994;2022-11-02T06:24:05;9.80;99.90
3919;DHT22;1974;48.670;8.994;2022-11-02T06:26:33;9.80;99.90
3919;DHT22;1974;48.670;8.994;2022-11-02T06:29:01;9.80;99.90
3919;DHT22;1974;48.670;8.994;2022-11-02T06:31:28;9.90;99.90
3919;DHT22;1974;48.670;8.994;2022-11-02T06:33:54;9.90;99.90
3919;DHT22;1974;48.670;8.994;2022-11-02T06:36:21;9.90;99.90
3919;DHT22;1974;48.670;8.994;2022-11-02T06:38:48;10.00;99.90
3919;DHT22;1974;48.670;8.994;2022-11-02T06:41:15;10.10;99.90
3919;DHT22;1974;48.670;8.994;2022-11-02T06:43:42;10.30;99.90
3919;DHT22;1974;48.670;8.994;2022-11-02T06:46:10;10.30;99.90
3919;DHT22;1974;48.670;8.994;2022-11-02T06:48:37;10.30;99.90
3919;DHT22;1974;48.670;8.994;2022-11-02T06:51:04;10.40;99.90
3919;DHT22;1974;48.670;8.994;2022-11-02T06:53:32;10.50;99.90
3919;DHT22;1974;48.670;8.994;2022-11-02T06:55:59;10.50;99.90
3919;DHT22;1974;48.670;8.994;2022-11-02T06:58:26;10.60;99.90
3919;DHT22;1974;48.670;8.994;2022-11-02T07:00:56;10.70;99.90
3919;DHT22;1974;48.670;8.994;2022-11-02T07:03:25;10.70;99.90
3919;DHT22;1974;48.670;8.994;2022-11-02T07:05:52;10.80;99.90
3919;DHT22;1974;48.670;8.994;2022-11-02T07:08:20;10.80;99.90
3919;DHT22;1974;48.670;8.994;2022-11-02T07:10:47;10.80;99.90
3919;DHT22;1974;48.670;8.994;2022-11-02T07:13:14;10.90;99.90
3919;DHT22;1974;48.670;8.994;2022-11-02T07:15:41;10.80;99.90
3919;DHT22;1974;48.670;8.994;2022-11-02T07:18:08;10.90;99.90
3919;DHT22;1974;48.670;8.994;2022-11-02T07:20:37;10.90;99.90
3919;DHT22;1974;48.670;8.994;2022-11-02T07:23:04;10.90;99.90
3919;DHT22;1974;48.670;8.994;2022-11-02T07:25:31;11.00;99.90
3919;DHT22;1974;48.670;8.994;2022-11-02T07:27:59;11.00;99.90
3919;DHT22;1974;48.670;8.994;2022-11-02T07:30:27;11.10;99.90
3919;DHT22;1974;48.670;8.994;2022-11-02T07:32:54;11.20;99.90
3919;DHT22;1974;48.670;8.994;2022-11-02T07:35:21;11.20;99.90
3919;DHT22;1974;48.670;8.994;2022-11-02T07:37:56;11.30;99.90
3919;DHT22;1974;48.670;8.994;2022-11-02T07:40:23;11.30;99.90
3919;DHT22;1974;48.670;8.994;2022-11-02T07:42:50;11.40;99.90
3919;DHT22;1974;48.670;8.994;2022-11-02T07:45:18;11.40;99.90
3919;DHT22;1974;48.670;8.994;2022-11-02T07:47:46;11.40;99.90
3919;DHT22;1974;48.670;8.994;2022-11-02T07:50:14;11.40;99.90
3919;DHT22;1974;48.670;8.994;2022-11-02T07:52:46;11.40;99.90
3919;DHT22;1974;48.670;8.994;2022-11-02T07:55:16;11.50;99.90
3919;DHT22;1974;48.670;8.994;2022-11-02T07:57:43;11.40;99.90
3919;DHT22;1974;48.670;8.994;2022-11-02T08:00:18;11.50;99.90
3919;DHT22;1974;48.670;8.994;2022-11-02T08:02:44;11.70;99.90
3919;DHT22;1974;48.670;8.994;2022-11-02T08:05:11;11.80;99.90
3919;DHT22;1974;48.670;8.994;2022-11-02T08:07:38;12.00;99.90
3919;DHT22;1974;48.670;8.994;2022-11-02T08:10:06;12.00;99.90
3919;DHT22;1974;48.670;8.994;2022-11-02T08:12:34;12.00;99.90
3919;DHT22;1974;48.670;8.994;2022-11-02T08:15:01;12.20;99.90
3919;DHT22;1974;48.670;8.994;2022-11-02T08:17:27;12.40;99.90
3919;DHT22;1974;48.670;8.994;2022-11-02T08:19:54;12.50;99.90
3919;DHT22;1974;48.670;8.994;2022-11-02T08:22:21;12.70;99.90
3919;DHT22;1974;48.670;8.994;2022-11-02T08:24:47;12.90;99.90
3919;DHT22;1974;48.670;8.994;2022-11-02T08:27:14;13.00;99.90
3919;DHT22;1974;48.670;8.994;2022-11-02T08:29:42;13.20;99.90
3919;DHT22;1974;48.670;8.994;2022-11-02T08:32:09;13.30;99.90
3919;DHT22;1974;48.670;8.994;2022-11-02T08:34:36;13.50;99.90
3919;DHT22;1974;48.670;8.994;2022-11-02T08:37:06;13.60;99.90
3919;DHT22;1974;48.670;8.994;2022-11-02T08:39:32;13.70;99.90
3919;DHT22;1974;48.670;8.994;2022-11-02T08:41:59;14.00;99.90
3919;DHT22;1974;48.670;8.994;2022-11-02T08:44:26;14.20;99.90
3919;DHT22;1974;48.670;8.994;2022-11-02T08:46:55;14.50;99.90
3919;DHT22;1974;48.670;8.994;2022-11-02T08:49:22;14.60;99.90
3919;DHT22;1974;48.670;8.994;2022-11-02T08:51:49;14.80;99.90
3919;DHT22;1974;48.670;8.994;2022-11-02T08:54:16;14.90;99.90
3919;DHT22;1974;48.670;8.994;2022-11-02T08:56:42;15.20;99.90
3919;DHT22;1974;48.670;8.994;2022-11-02T08:59:09;15.40;99.90
3919;DHT22;1974;48.670;8.994;2022-11-02T09:01:36;15.90;99.90
3919;DHT22;1974;48.670;8.994;2022-11-02T09:04:05;16.30;99.90
3919;DHT22;1974;48.670;8.994;2022-11-02T09:06:32;16.60;99.90
3919;DHT22;1974;48.670;8.994;2022-11-02T09:08:59;16.60;99.90
3919;DHT22;1974;48.670;8.994;2022-11-02T09:11:25;16.50;99.90
3919;DHT22;1974;48.670;8.994;2022-11-02T09:13:52;16.40;99.90
3919;DHT22;1974;48.670;8.994;2022-11-02T09:16:19;16.30;99.90
3919;DHT22;1974;48.670;8.994;2022-11-02T09:18:46;16.20;99.90
3919;DHT22;1974;48.670;8.994;2022-11-02T09:21:14;16.20;99.90
3919;DHT22;1974;48.670;8.994;2022-11-02T09:23:41;16.00;99.90
3919;DHT22;1974;48.670;8.994;2022-11-02T09:26:08;16.00;99.90
3919;DHT22;1974;48.670;8.994;2022-11-02T09:28:35;15.80;99.90
3919;DHT22;1974;48.670;8.994;2022-11-02T09:31:03;15.60;99.90
3919;DHT22;1974;48.670;8.994;2022-11-02T09:33:29;15.40;99.90
3919;DHT22;1974;48.670;8.994;2022-11-02T09:36:02;15.30;99.90
3919;DHT22;1974;48.670;8.994;2022-11-02T09:38:31;15.30;99.90
3919;DHT22;1974;48.670;8.994;2022-11-02T09:41:11;15.20;99.90
3919;DHT22;1974;48.670;8.994;2022-11-02T09:43:45;15.20;99.90
3919;DHT22;1974;48.670;8.994;2022-11-02T09:46:18;15.20;99.90
3919;DHT22;1974;48.670;8.994;2022-11-02T09:48:47;15.20;99.90
3919;DHT22;1974;48.670;8.994;2022-11-02T09:51:19;15.20;99.90
3919;DHT22;1974;48.670;8.994;2022-11-02T09:53:54;15.10;99.90
3919;DHT22;1974;48.670;8.994;2022-11-02T09:56:22;15.10;99.90
3919;DHT22;1974;48.670;8.994;2022-11-02T09:58:53;15.00;99.90
3919;DHT22;1974;48.670;8.994;2022-11-02T10:01:39;15.00;99.90
3919;DHT22;1974;48.670;8.994;2022-11-02T10:07:10;15.10;99.90
3919;DHT22;1974;48.670;8.994;2022-11-02T10:09:48;15.00;99.90
3919;DHT22;1974;48.670;8.994;2022-11-02T10:12:22;15.10;99.90
3919;DHT22;1974;48.670;8.994;2022-11-02T10:14:58;15.10;99.90
3919;DHT22;1974;48.670;8.994;2022-11-02T10:17:31;15.20;99.90
3919;DHT22;1974;48.670;8.994;2022-11-02T10:20:02;15.30;99.90
3919;DHT22;1974;48.670;8.994;2022-11-02T10:22:33;15.20;99.90
3919;DHT22;1974;48.670;8.994;2022-11-02T10:25:05;15.30;99.90
3919;DHT22;1974;48.670;8.994;2022-11-02T10:27:35;15.40;99.90
3919;DHT22;1974;48.670;8.994;2022-11-02T10:30:06;15.40;99.90
3919;DHT22;1974;48.670;8.994;2022-11-02T10:32:37;15.30;99.90
3919;DHT22;1974;48.670;8.994;2022-11-02T10:35:15;15.40;99.90
3919;DHT22;1974;48.670;8.994;2022-11-02T10:37:58;15.40;99.90
3919;DHT22;1974;48.670;8.994;2022-11-02T10:40:43;15.50;99.90
3919;DHT22;1974;48.670;8.994;2022-11-02T10:43:23;15.40;99.90
3919;DHT22;1974;48.670;8.994;2022-11-02T10:46:10;15.20;99.90
3919;DHT22;1974;48.670;8.994;2022-11-02T10:48:48;15.20;99.90
3919;DHT22;1974;48.670;8.994;2022-11-02T10:51:17;15.20;99.90
3919;DHT22;1974;48.670;8.994;2022-11-02T10:53:47;15.10;99.90
3919;DHT22;1974;48.670;8.994;2022-11-02T10:56:18;15.00;99.90
3919;DHT22;1974;48.670;8.994;2022-11-02T10:58:51;15.00;99.90
3919;DHT22;1974;48.670;8.994;2022-11-02T11:01:20;15.10;99.90
3919;DHT22;1974;48.670;8.994;2022-11-02T11:03:56;15.10;99.90
3919;DHT22;1974;48.670;8.994;2022-11-02T11:06:23;15.10;99.90
3919;DHT22;1974;48.670;8.994;2022-11-02T11:08:51;15.10;99.90
3919;DHT22;1974;48.670;8.994;2022-11-02T11:11:21;15.10;99.90
3919;DHT22;1974;48.670;8.994;2022-11-02T11:13:55;15.10;99.90
3919;DHT22;1974;48.670;8.994;2022-11-02T11:16:35;15.10;99.90
3919;DHT22;1974;48.670;8.994;2022-11-02T11:19:04;15.10;99.90
3919;DHT22;1974;48.670;8.994;2022-11-02T11:21:36;15.00;99.90
3919;DHT22;1974;48.670;8.994;2022-11-02T11:24:24;15.00;99.90
3919;DHT22;1974;48.670;8.994;2022-11-02T11:27:04;15.00;99.90
3919;DHT22;1974;48.670;8.994;2022-11-02T11:29:33;15.00;99.90
3919;DHT22;1974;48.670;8.994;2022-11-02T11:32:00;15.00;99.90
3919;DHT22;1974;48.670;8.994;2022-11-02T11:34:30;14.90;99.90
3919;DHT22;1974;48.670;8.994;2022-11-02T11:37:05;14.90;99.90
3919;DHT22;1974;48.670;8.994;2022-11-02T11:39:33;14.90;99.90
3919;DHT22;1974;48.670;8.994;2022-11-02T11:42:03;14.80;99.90
3919;DHT22;1974;48.670;8.994;2022-11-02T11:44:31;14.70;99.90
3919;DHT22;1974;48.670;8.994;2022-11-02T11:46:58;14.70;99.90
3919;DHT22;1974;48.670;8.994;2022-11-02T11:49:28;14.70;99.90
3919;DHT22;1974;48.670;8.994;2022-11-02T11:51:57;14.60;99.90
3919;DHT22;1974;48.670;8.994;2022-11-02T11:54:26;14.60;99.90
3919;DHT22;1974;48.670;8.994;2022-11-02T11:56:54;14.60;99.90
3919;DHT22;1974;48.670;8.994;2022-11-02T11:59:25;14.60;99.90
3919;DHT22;1974;48.670;8.994;2022-11-02T12:01:55;14.70;99.90
3919;DHT22;1974;48.670;8.994;2022-11-02T12:04:27;14.70;99.90
3919;DHT22;1974;48.670;8.994;2022-11-02T12:07:13;14.80;99.90
3919;DHT22;1974;48.670;8.994;2022-11-02T12:09:48;15.00;99.90
3919;DHT22;1974;48.670;8.994;2022-11-02T12:12:24;15.00;99.90
3919;DHT22;1974;48.670;8.994;2022-11-02T12:15:06;15.20;99.90
3919;DHT22;1974;48.670;8.994;2022-11-02T12:17:46;15.40;99.90
3919;DHT22;1974;48.670;8.994;2022-11-02T12:23:13;15.90;99.90
3919;DHT22;1974;48.670;8.994;2022-11-02T12:25:50;15.90;99.90
3919;DHT22;1974;48.670;8.994;2022-11-02T12:28:30;16.00;99.90
3919;DHT22;1974;48.670;8.994;2022-11-02T12:31:08;16.10;99.90
3919;DHT22;1974;48.670;8.994;2022-11-02T12:33:47;16.10;99.90
3919;DHT22;1974;48.670;8.994;2022-11-02T12:36:45;16.20;99.90
3919;DHT22;1974;48.670;8.994;2022-11-02T12:39:23;16.00;99.90
3919;DHT22;1974;48.670;8.994;2022-11-02T12:42:01;15.80;99.90
3919;DHT22;1974;48.670;8.994;2022-11-02T12:44:43;15.70;99.90
3919;DHT22;1974;48.670;8.994;2022-11-02T12:47:24;15.50;99.90
3919;DHT22;1974;48.670;8.994;2022-11-02T12:50:06;15.30;99.90
3919;DHT22;1974;48.670;8.994;2022-11-02T12:52:44;15.20;99.90
3919;DHT22;1974;48.670;8.994;2022-11-02T12:55:16;15.20;99.90
3919;DHT22;1974;48.670;8.994;2022-11-02T12:57:45;15.10;99.90
3919;DHT22;1974;48.670;8.994;2022-11-02T13:00:17;15.10;99.90
3919;DHT22;1974;48.670;8.994;2022-11-02T13:02:55;14.90;99.90
3919;DHT22;1974;48.670;8.994;2022-11-02T13:05:26;14.80;99.90
3919;DHT22;1974;48.670;8.994;2022-11-02T13:08:02;14.70;99.90
3919;DHT22;1974;48.670;8.994;2022-11-02T13:10:33;14.60;99.90
3919;DHT22;1974;48.670;8.994;2022-11-02T13:13:03;14.50;99.90
3919;DHT22;1974;48.670;8.994;2022-11-02T13:15:33;14.40;99.90
3919;DHT22;1974;48.670;8.994;2022-11-02T13:18:05;14.40;99.90
3919;DHT22;1974;48.670;8.994;2022-11-02T13:20:39;14.40;99.90
3919;DHT22;1974;48.670;8.994;2022-11-02T13:23:18;14.40;99.90
3919;DHT22;1974;48.670;8.994;2022-11-02T13:25:51;14.50;99.90
3919;DHT22;1974;48.670;8.994;2022-11-02T13:28:29;14.50;99.90
3919;DHT22;1974;48.670;8.994;2022-11-02T13:30:57;14.50;99.90
3919;DHT22;1974;48.670;8.994;2022-11-02T13:33:29;14.70;99.90
3919;DHT22;1974;48.670;8.994;2022-11-02T13:35:59;14.70;99.90
3919;DHT22;1974;48.670;8.994;2022-11-02T13:38:30;14.70;99.90
3919;DHT22;1974;48.670;8.994;2022-11-02T13:44:08;14.60;99.90
3919;DHT22;1974;48.670;8.994;2022-11-02T13:46:59;14.60;99.90
3919;DHT22;1974;48.670;8.994;2022-11-02T13:49:33;14.60;99.90
3919;DHT22;1974;48.670;8.994;2022-11-02T13:52:02;14.70;99.90
3919;DHT22;1974;48.670;8.994;2022-11-02T13:54:32;14.70;99.90
3919;DHT22;1974;48.670;8.994;2022-11-02T13:57:00;14.70;99.90
3919;DHT22;1974;48.670;8.994;2022-11-02T13:59:30;14.70;99.90
3919;DHT22;1974;48.670;8.994;2022-11-02T14:01:59;14.80;99.90
3919;DHT22;1974;48.670;8.994;2022-11-02T14:04:33;14.80;99.90
3919;DHT22;1974;48.670;8.994;2022-11-02T14:07:04;14.80;99.90
3919;DHT22;1974;48.670;8.994;2022-11-02T14:09:34;14.80;99.90
3919;DHT22;1974;48.670;8.994;2022-11-02T14:12:17;14.70;99.90
3919;DHT22;1974;48.670;8.994;2022-11-02T14:17:59;14.60;99.90
3919;DHT22;1974;48.670;8.994;2022-11-02T14:20:33;14.50;99.90
3919;DHT22;1974;48.670;8.994;2022-11-02T14:23:37;14.40;99.90
3919;DHT22;1974;48.670;8.994;2022-11-02T14:26:31;14.30;99.90
3919;DHT22;1974;48.670;8.994;2022-11-02T14:28:58;14.20;99.90
3919;DHT22;1974;48.670;8.994;2022-11-02T14:31:36;14.10;99.90
3919;DHT22;1974;48.670;8.994;2022-11-02T14:34:30;14.10;99.90
3919;DHT22;1974;48.670;8.994;2022-11-02T14:37:20;14.00;99.90
3919;DHT22;1974;48.670;8.994;2022-11-02T14:39:54;14.00;99.90
3919;DHT22;1974;48.670;8.994;2022-11-02T14:42:36;13.90;99.90
3919;DHT22;1974;48.670;8.994;2022-11-02T14:45:36;13.80;99.90
3919;DHT22;1974;48.670;8.994;2022-11-02T14:48:13;13.70;99.90
3919;DHT22;1974;48.670;8.994;2022-11-02T14:50:42;13.70;99.90
3919;DHT22;1974;48.670;8.994;2022-11-02T14:53:21;13.60;99.90
3919;DHT22;1974;48.670;8.994;2022-11-02T14:55:52;13.50;99.90
3919;DHT22;1974;48.670;8.994;2022-11-02T14:58:20;13.50;99.90
3919;DHT22;1974;48.670;8.994;2022-11-02T15:00:57;13.40;99.90
3919;DHT22;1974;48.670;8.994;2022-11-02T15:03:30;13.40;99.90
3919;DHT22;1974;48.670;8.994;2022-11-02T15:06:00;13.30;99.90
3919;DHT22;1974;48.670;8.994;2022-11-02T15:08:32;13.30;99.90
3919;DHT22;1974;48.670;8.994;2022-11-02T15:20:24;13.00;99.90
3919;DHT22;1974;48.670;8.994;2022-11-02T15:22:54;13.00;99.90
3919;DHT22;1974;48.670;8.994;2022-11-02T15:25:27;12.90;99.90
3919;DHT22;1974;48.670;8.994;2022-11-02T15:28:02;12.90;99.90
3919;DHT22;1974;48.670;8.994;2022-11-02T15:30:30;12.80;99.90
3919;DHT22;1974;48.670;8.994;2022-11-02T15:33:00;12.80;99.90
3919;DHT22;1974;48.670;8.994;2022-11-02T15:35:30;12.70;99.90
3919;DHT22;1974;48.670;8.994;2022-11-02T15:38:00;12.70;99.90
3919;DHT22;1974;48.670;8.994;2022-11-02T15:40:32;12.60;99.90
3919;DHT22;1974;48.670;8.994;2022-11-02T15:43:03;12.60;99.90
3919;DHT22;1974;48.670;8.994;2022-11-02T15:45:48;12.50;99.90
3919;DHT22;1974;48.670;8.994;2022-11-02T15:48:28;12.50;99.90
3919;DHT22;1974;48.670;8.994;2022-11-02T15:51:03;12.40;99.90
3919;DHT22;1974;48.670;8.994;2022-11-02T15:53:52;12.30;99.90
3919;DHT22;1974;48.670;8.994;2022-11-02T15:56:48;12.30;99.90
3919;DHT22;1974;48.670;8.994;2022-11-02T15:59:53;12.20;99.90
3919;DHT22;1974;48.670;8.994;2022-11-02T16:02:25;12.10;99.90
3919;DHT22;1974;48.670;8.994;2022-11-02T16:04:54;12.10;99.90
3919;DHT22;1974;48.670;8.994;2022-11-02T16:07:22;12.00;99.90
3919;DHT22;1974;48.670;8.994;2022-11-02T16:09:50;11.90;99.90
3919;DHT22;1974;48.670;8.994;2022-11-02T16:12:19;11.80;99.90
3919;DHT22;1974;48.670;8.994;2022-11-02T16:14:51;11.80;99.90
3919;DHT22;1974;48.670;8.994;2022-11-02T16:17:21;11.80;99.90
3919;DHT22;1974;48.670;8.994;2022-11-02T16:19:49;11.70;99.90
3919;DHT22;1974;48.670;8.994;2022-11-02T16:22:22;11.70;99.90
3919;DHT22;1974;48.670;8.994;2022-11-02T16:24:51;11.70;99.90
3919;DHT22;1974;48.670;8.994;2022-11-02T16:27:20;11.70;99.90
3919;DHT22;1974;48.670;8.994;2022-11-02T16:29:48;11.60;99.90
3919;DHT22;1974;48.670;8.994;2022-11-02T16:32:15;11.60;99.90
3919;DHT22;1974;48.670;8.994;2022-11-02T16:34:43;11.60;99.90
3919;DHT22;1974;48.670;8.994;2022-11-02T16:37:11;11.50;99.90
3919;DHT22;1974;48.670;8.994;2022-11-02T16:39:44;11.50;99.90
3919;DHT22;1974;48.670;8.994;2022-11-02T16:42:15;11.50;99.90
3919;DHT22;1974;48.670;8.994;2022-11-02T16:44:53;11.50;99.90
3919;DHT22;1974;48.670;8.994;2022-11-02T16:47:28;11.40;99.90
3919;DHT22;1974;48.670;8.994;2022-11-02T16:49:57;11.30;99.90
3919;DHT22;1974;48.670;8.994;2022-11-02T16:52:28;11.30;99.90
3919;DHT22;1974;48.670;8.994;2022-11-02T16:54:56;11.30;99.90